sensor_id;sensor_type;location;lat;lon;timestamp;P1;durP1;ratioP1;P2;durP2;ratioP2
16862;SDS011;52193;48.216;-1.698;2023-05-23T00:01:21;5.85;;;5.40;;
16862;SDS011;52193;48.216;-1.698;2023-05-23T00:03:48;7.05;;;6.22;;
16862;SDS011;52193;48.216;-1.698;2023-05-23T00:06:21;6.15;;;5.53;;
16862;SDS011;52193;48.216;-1.698;2023-05-23T00:08:48;5.90;;;5.47;;
16862;SDS011;52193;48.216;-1.698;2023-05-23T00:11:15;7.13;;;6.43;;
16862;SDS011;52193;48.216;-1.698;2023-05-23T00:13:44;5.82;;;5.32;;
16862;SDS011;52193;48.216;-1.698;2023-05-23T00:16:11;5.45;;;5.03;;
16862;SDS011;52193;48.216;-1.698;2023-05-23T00:18:39;5.50;;;5.00;;
16862;SDS011;52193;48.216;-1.698;2023-05-23T00:21:07;6.20;;;5.80;;
16862;SDS011;52193;48.216;-1.698;2023-05-23T00:23:35;6.07;;;5.50;;
16862;SDS011;52193;48.216;-1.698;2023-05-23T00:26:02;5.88;;;5.40;;
16862;SDS011;52193;48.216;-1.698;2023-05-23T00:28:29;6.53;;;6.00;;
16862;SDS011;52193;48.216;-1.698;2023-05-23T00:30:56;6.15;;;5.55;;
16862;SDS011;52193;48.216;-1.698;2023-05-23T00:33:23;6.10;;;5.70;;
16862;SDS011;52193;48.216;-1.698;2023-05-23T00:35:50;6.47;;;5.97;;
16862;SDS011;52193;48.216;-1.698;2023-05-23T00:38:17;6.35;;;5.80;;
16862;SDS011;52193;48.216;-1.698;2023-05-23T00:40:45;6.80;;;5.78;;
16862;SDS011;52193;48.216;-1.698;2023-05-23T00:43:13;6.40;;;5.90;;
16862;SDS011;52193;48.216;-1.698;2023-05-23T00:45:40;5.97;;;5.57;;
16862;SDS011;52193;48.216;-1.698;2023-05-23T00:48:07;5.88;;;5.38;;
16862;SDS011;52193;48.216;-1.698;2023-05-23T00:50:34;6.70;;;6.10;;
16862;SDS011;52193;48.216;-1.698;2023-05-23T00:53:01;6.63;;;6.13;;
16862;SDS011;52193;48.216;-1.698;2023-05-23T00:55:28;6.47;;;5.88;;
16862;SDS011;52193;48.216;-1.698;2023-05-23T00:57:58;6.70;;;6.07;;
16862;SDS011;52193;48.216;-1.698;2023-05-23T01:00:26;6.10;;;5.68;;
16862;SDS011;52193;48.216;-1.698;2023-05-23T01:02:54;6.60;;;6.10;;
16862;SDS011;52193;48.216;-1.698;2023-05-23T01:05:21;6.25;;;5.75;;
16862;SDS011;52193;48.216;-1.698;2023-05-23T01:07:49;6.43;;;5.93;;
16862;SDS011;52193;48.216;-1.698;2023-05-23T01:10:16;7.63;;;6.32;;
16862;SDS011;52193;48.216;-1.698;2023-05-23T01:12:47;5.97;;;5.57;;
16862;SDS011;52193;48.216;-1.698;2023-05-23T01:15:24;7.43;;;6.82;;
16862;SDS011;52193;48.216;-1.698;2023-05-23T01:17:57;6.88;;;6.43;;
16862;SDS011;52193;48.216;-1.698;2023-05-23T01:20:29;5.63;;;5.22;;
16862;SDS011;52193;48.216;-1.698;2023-05-23T01:23:09;7.13;;;6.53;;
16862;SDS011;52193;48.216;-1.698;2023-05-23T01:25:53;7.05;;;6.40;;
16862;SDS011;52193;48.216;-1.698;2023-05-23T01:28:36;6.97;;;6.32;;
16862;SDS011;52193;48.216;-1.698;2023-05-23T01:31:09;6.68;;;6.18;;
16862;SDS011;52193;48.216;-1.698;2023-05-23T01:33:36;6.55;;;5.95;;
16862;SDS011;52193;48.216;-1.698;2023-05-23T01:36:05;7.00;;;6.50;;
16862;SDS011;52193;48.216;-1.698;2023-05-23T01:38:33;7.20;;;6.60;;
16862;SDS011;52193;48.216;-1.698;2023-05-23T01:41:00;6.82;;;6.22;;
16862;SDS011;52193;48.216;-1.698;2023-05-23T01:43:27;7.22;;;6.63;;
16862;SDS011;52193;48.216;-1.698;2023-05-23T01:45:55;7.43;;;6.82;;
16862;SDS011;52193;48.216;-1.698;2023-05-23T01:48:23;5.93;;;5.53;;
16862;SDS011;52193;48.216;-1.698;2023-05-23T01:50:52;6.15;;;5.60;;
16862;SDS011;52193;48.216;-1.698;2023-05-23T01:53:21;7.40;;;6.80;;
16862;SDS011;52193;48.216;-1.698;2023-05-23T01:55:50;6.80;;;6.10;;
16862;SDS011;52193;48.216;-1.698;2023-05-23T01:58:18;6.82;;;6.20;;
16862;SDS011;52193;48.216;-1.698;2023-05-23T02:00:45;6.55;;;5.95;;
16862;SDS011;52193;48.216;-1.698;2023-05-23T02:03:13;7.70;;;6.97;;
16862;SDS011;52193;48.216;-1.698;2023-05-23T02:05:40;7.40;;;6.80;;
16862;SDS011;52193;48.216;-1.698;2023-05-23T02:08:07;7.55;;;6.95;;
16862;SDS011;52193;48.216;-1.698;2023-05-23T02:10:34;7.70;;;7.00;;
16862;SDS011;52193;48.216;-1.698;2023-05-23T02:13:01;6.63;;;6.13;;
16862;SDS011;52193;48.216;-1.698;2023-05-23T02:15:28;6.88;;;6.28;;
16862;SDS011;52193;48.216;-1.698;2023-05-23T02:17:55;7.18;;;6.60;;
16862;SDS011;52193;48.216;-1.698;2023-05-23T02:20:23;5.90;;;5.50;;
16862;SDS011;52193;48.216;-1.698;2023-05-23T02:22:50;7.20;;;6.50;;
16862;SDS011;52193;48.216;-1.698;2023-05-23T02:25:17;6.57;;;6.03;;
16862;SDS011;52193;48.216;-1.698;2023-05-23T02:27:44;6.93;;;6.35;;
16862;SDS011;52193;48.216;-1.698;2023-05-23T02:30:11;7.63;;;6.93;;
16862;SDS011;52193;48.216;-1.698;2023-05-23T02:32:39;6.57;;;6.07;;
16862;SDS011;52193;48.216;-1.698;2023-05-23T02:35:06;7.80;;;7.10;;
16862;SDS011;52193;48.216;-1.698;2023-05-23T02:37:35;7.57;;;6.88;;
16862;SDS011;52193;48.216;-1.698;2023-05-23T02:40:02;7.22;;;6.68;;
16862;SDS011;52193;48.216;-1.698;2023-05-23T02:42:31;6.80;;;6.35;;
16862;SDS011;52193;48.216;-1.698;2023-05-23T02:44:58;7.10;;;6.60;;
16862;SDS011;52193;48.216;-1.698;2023-05-23T02:47:25;6.55;;;6.05;;
16862;SDS011;52193;48.216;-1.698;2023-05-23T02:49:52;6.57;;;6.15;;
16862;SDS011;52193;48.216;-1.698;2023-05-23T02:52:19;7.82;;;7.22;;
16862;SDS011;52193;48.216;-1.698;2023-05-23T02:54:47;7.45;;;6.85;;
16862;SDS011;52193;48.216;-1.698;2023-05-23T02:57:14;7.75;;;7.13;;
16862;SDS011;52193;48.216;-1.698;2023-05-23T02:59:42;8.65;;;7.75;;
16862;SDS011;52193;48.216;-1.698;2023-05-23T03:02:08;8.50;;;7.90;;
16862;SDS011;52193;48.216;-1.698;2023-05-23T03:04:35;8.13;;;7.50;;
16862;SDS011;52193;48.216;-1.698;2023-05-23T03:07:03;7.25;;;6.75;;
16862;SDS011;52193;48.216;-1.698;2023-05-23T03:09:30;9.55;;;8.75;;
16862;SDS011;52193;48.216;-1.698;2023-05-23T03:11:58;8.63;;;7.93;;
16862;SDS011;52193;48.216;-1.698;2023-05-23T03:14:26;7.60;;;6.90;;
16862;SDS011;52193;48.216;-1.698;2023-05-23T03:16:53;7.85;;;7.13;;
16862;SDS011;52193;48.216;-1.698;2023-05-23T03:19:19;8.90;;;8.05;;
16862;SDS011;52193;48.216;-1.698;2023-05-23T03:21:46;9.70;;;8.80;;
16862;SDS011;52193;48.216;-1.698;2023-05-23T03:24:14;8.50;;;7.80;;
16862;SDS011;52193;48.216;-1.698;2023-05-23T03:26:41;8.68;;;8.07;;
16862;SDS011;52193;48.216;-1.698;2023-05-23T03:29:10;8.27;;;7.57;;
16862;SDS011;52193;48.216;-1.698;2023-05-23T03:31:37;8.88;;;7.97;;
16862;SDS011;52193;48.216;-1.698;2023-05-23T03:34:04;8.52;;;7.82;;
16862;SDS011;52193;48.216;-1.698;2023-05-23T03:36:31;7.95;;;7.35;;
16862;SDS011;52193;48.216;-1.698;2023-05-23T03:38:58;7.90;;;7.30;;
16862;SDS011;52193;48.216;-1.698;2023-05-23T03:41:25;7.82;;;7.13;;
16862;SDS011;52193;48.216;-1.698;2023-05-23T03:43:52;7.97;;;7.28;;
16862;SDS011;52193;48.216;-1.698;2023-05-23T03:46:20;7.63;;;7.05;;
16862;SDS011;52193;48.216;-1.698;2023-05-23T03:48:47;7.60;;;7.10;;
16862;SDS011;52193;48.216;-1.698;2023-05-23T03:51:15;7.88;;;7.28;;
16862;SDS011;52193;48.216;-1.698;2023-05-23T03:53:42;7.82;;;7.22;;
16862;SDS011;52193;48.216;-1.698;2023-05-23T03:56:09;9.20;;;8.32;;
16862;SDS011;52193;48.216;-1.698;2023-05-23T03:58:36;7.10;;;6.53;;
16862;SDS011;52193;48.216;-1.698;2023-05-23T04:01:03;7.07;;;6.47;;
16862;SDS011;52193;48.216;-1.698;2023-05-23T04:03:31;8.60;;;7.82;;
16862;SDS011;52193;48.216;-1.698;2023-05-23T04:05:58;8.32;;;7.53;;
16862;SDS011;52193;48.216;-1.698;2023-05-23T04:08:25;8.20;;;7.55;;
16862;SDS011;52193;48.216;-1.698;2023-05-23T04:10:54;8.07;;;7.28;;
16862;SDS011;52193;48.216;-1.698;2023-05-23T04:13:21;6.97;;;6.38;;
16862;SDS011;52193;48.216;-1.698;2023-05-23T04:15:49;6.35;;;5.82;;
16862;SDS011;52193;48.216;-1.698;2023-05-23T04:18:16;7.18;;;6.53;;
16862;SDS011;52193;48.216;-1.698;2023-05-23T04:20:45;7.20;;;6.60;;
16862;SDS011;52193;48.216;-1.698;2023-05-23T04:23:12;7.43;;;6.35;;
16862;SDS011;52193;48.216;-1.698;2023-05-23T04:25:39;6.63;;;6.13;;
16862;SDS011;52193;48.216;-1.698;2023-05-23T04:28:06;5.22;;;4.70;;
16862;SDS011;52193;48.216;-1.698;2023-05-23T04:30:34;7.35;;;6.75;;
16862;SDS011;52193;48.216;-1.698;2023-05-23T04:33:01;7.35;;;6.68;;
16862;SDS011;52193;48.216;-1.698;2023-05-23T04:35:28;6.50;;;6.00;;
16862;SDS011;52193;48.216;-1.698;2023-05-23T04:37:59;6.38;;;5.88;;
16862;SDS011;52193;48.216;-1.698;2023-05-23T04:40:28;6.22;;;5.72;;
16862;SDS011;52193;48.216;-1.698;2023-05-23T04:42:55;6.38;;;5.88;;
16862;SDS011;52193;48.216;-1.698;2023-05-23T04:45:22;6.45;;;5.95;;
16862;SDS011;52193;48.216;-1.698;2023-05-23T04:47:50;6.47;;;5.88;;
16862;SDS011;52193;48.216;-1.698;2023-05-23T04:50:18;5.97;;;5.47;;
16862;SDS011;52193;48.216;-1.698;2023-05-23T04:52:46;7.25;;;5.55;;
16862;SDS011;52193;48.216;-1.698;2023-05-23T04:55:14;6.97;;;5.85;;
16862;SDS011;52193;48.216;-1.698;2023-05-23T04:57:42;6.43;;;5.93;;
16862;SDS011;52193;48.216;-1.698;2023-05-23T05:00:09;7.00;;;6.40;;
16862;SDS011;52193;48.216;-1.698;2023-05-23T05:02:37;5.57;;;5.07;;
16862;SDS011;52193;48.216;-1.698;2023-05-23T05:05:04;6.50;;;6.00;;
16862;SDS011;52193;48.216;-1.698;2023-05-23T05:07:32;6.57;;;5.97;;
16862;SDS011;52193;48.216;-1.698;2023-05-23T05:09:59;5.30;;;4.90;;
16862;SDS011;52193;48.216;-1.698;2023-05-23T05:12:28;6.15;;;5.65;;
16862;SDS011;52193;48.216;-1.698;2023-05-23T05:14:55;6.10;;;5.30;;
16862;SDS011;52193;48.216;-1.698;2023-05-23T05:17:22;6.10;;;5.60;;
16862;SDS011;52193;48.216;-1.698;2023-05-23T05:19:48;7.47;;;6.00;;
16862;SDS011;52193;48.216;-1.698;2023-05-23T05:22:15;8.23;;;5.85;;
16862;SDS011;52193;48.216;-1.698;2023-05-23T05:24:42;6.28;;;5.80;;
16862;SDS011;52193;48.216;-1.698;2023-05-23T05:27:09;6.30;;;5.78;;
16862;SDS011;52193;48.216;-1.698;2023-05-23T05:29:37;6.53;;;5.93;;
16862;SDS011;52193;48.216;-1.698;2023-05-23T05:32:04;6.50;;;6.00;;
16862;SDS011;52193;48.216;-1.698;2023-05-23T05:34:33;6.72;;;6.00;;
16862;SDS011;52193;48.216;-1.698;2023-05-23T05:37:01;5.50;;;5.00;;
16862;SDS011;52193;48.216;-1.698;2023-05-23T05:39:28;6.43;;;5.50;;
16862;SDS011;52193;48.216;-1.698;2023-05-23T05:41:55;6.07;;;5.53;;
16862;SDS011;52193;48.216;-1.698;2023-05-23T05:44:23;6.00;;;5.50;;
16862;SDS011;52193;48.216;-1.698;2023-05-23T05:46:52;5.13;;;4.70;;
16862;SDS011;52193;48.216;-1.698;2023-05-23T05:49:19;5.15;;;4.75;;
16862;SDS011;52193;48.216;-1.698;2023-05-23T05:51:46;5.18;;;4.78;;
16862;SDS011;52193;48.216;-1.698;2023-05-23T05:54:13;6.35;;;5.28;;
16862;SDS011;52193;48.216;-1.698;2023-05-23T05:56:40;5.10;;;4.70;;
16862;SDS011;52193;48.216;-1.698;2023-05-23T05:59:07;5.43;;;4.93;;
16862;SDS011;52193;48.216;-1.698;2023-05-23T06:01:34;5.25;;;4.85;;
16862;SDS011;52193;48.216;-1.698;2023-05-23T06:04:03;6.30;;;5.15;;
16862;SDS011;52193;48.216;-1.698;2023-05-23T06:06:30;5.90;;;5.40;;
16862;SDS011;52193;48.216;-1.698;2023-05-23T06:08:57;5.72;;;5.22;;
16862;SDS011;52193;48.216;-1.698;2023-05-23T06:11:24;5.30;;;4.80;;
16862;SDS011;52193;48.216;-1.698;2023-05-23T06:13:51;5.93;;;5.32;;
16862;SDS011;52193;48.216;-1.698;2023-05-23T06:16:18;5.20;;;4.50;;
16862;SDS011;52193;48.216;-1.698;2023-05-23T06:18:45;5.05;;;4.65;;
16862;SDS011;52193;48.216;-1.698;2023-05-23T06:21:14;5.35;;;4.85;;
16862;SDS011;52193;48.216;-1.698;2023-05-23T06:23:40;6.60;;;4.90;;
16862;SDS011;52193;48.216;-1.698;2023-05-23T06:26:07;5.50;;;5.00;;
16862;SDS011;52193;48.216;-1.698;2023-05-23T06:28:34;6.13;;;5.63;;
16862;SDS011;52193;48.216;-1.698;2023-05-23T06:31:03;5.25;;;4.85;;
16862;SDS011;52193;48.216;-1.698;2023-05-23T06:33:30;4.75;;;4.25;;
16862;SDS011;52193;48.216;-1.698;2023-05-23T06:35:57;6.97;;;5.32;;
16862;SDS011;52193;48.216;-1.698;2023-05-23T06:38:26;5.95;;;5.30;;
16862;SDS011;52193;48.216;-1.698;2023-05-23T06:40:54;5.90;;;5.40;;
16862;SDS011;52193;48.216;-1.698;2023-05-23T06:43:21;5.03;;;4.65;;
16862;SDS011;52193;48.216;-1.698;2023-05-23T06:45:48;5.30;;;4.80;;
16862;SDS011;52193;48.216;-1.698;2023-05-23T06:48:15;6.10;;;5.60;;
16862;SDS011;52193;48.216;-1.698;2023-05-23T06:50:42;6.70;;;5.20;;
16862;SDS011;52193;48.216;-1.698;2023-05-23T06:53:09;5.28;;;4.78;;
16862;SDS011;52193;48.216;-1.698;2023-05-23T06:55:37;5.18;;;4.78;;
16862;SDS011;52193;48.216;-1.698;2023-05-23T06:58:04;6.78;;;5.25;;
16862;SDS011;52193;48.216;-1.698;2023-05-23T07:00:31;6.22;;;5.43;;
16862;SDS011;52193;48.216;-1.698;2023-05-23T07:02:58;5.28;;;4.40;;
16862;SDS011;52193;48.216;-1.698;2023-05-23T07:05:25;5.00;;;4.50;;
16862;SDS011;52193;48.216;-1.698;2023-05-23T07:07:53;4.65;;;4.30;;
16862;SDS011;52193;48.216;-1.698;2023-05-23T07:10:20;6.00;;;4.70;;
16862;SDS011;52193;48.216;-1.698;2023-05-23T07:12:48;5.80;;;5.20;;
16862;SDS011;52193;48.216;-1.698;2023-05-23T07:15:15;5.25;;;4.85;;
16862;SDS011;52193;48.216;-1.698;2023-05-23T07:17:42;4.53;;;4.15;;
16862;SDS011;52193;48.216;-1.698;2023-05-23T07:20:10;4.88;;;4.47;;
16862;SDS011;52193;48.216;-1.698;2023-05-23T07:22:37;8.27;;;4.53;;
16862;SDS011;52193;48.216;-1.698;2023-05-23T07:25:04;5.05;;;4.55;;
16862;SDS011;52193;48.216;-1.698;2023-05-23T07:27:32;4.85;;;4.45;;
16862;SDS011;52193;48.216;-1.698;2023-05-23T07:30:00;5.55;;;4.35;;
16862;SDS011;52193;48.216;-1.698;2023-05-23T07:32:28;4.93;;;4.43;;
16862;SDS011;52193;48.216;-1.698;2023-05-23T07:34:55;5.90;;;5.30;;
16862;SDS011;52193;48.216;-1.698;2023-05-23T07:37:22;6.43;;;5.72;;
16862;SDS011;52193;48.216;-1.698;2023-05-23T07:39:51;6.25;;;5.40;;
16862;SDS011;52193;48.216;-1.698;2023-05-23T07:42:18;6.25;;;5.15;;
16862;SDS011;52193;48.216;-1.698;2023-05-23T07:44:45;5.00;;;4.60;;
16862;SDS011;52193;48.216;-1.698;2023-05-23T07:47:13;6.13;;;5.53;;
16862;SDS011;52193;48.216;-1.698;2023-05-23T07:49:40;7.25;;;5.70;;
16862;SDS011;52193;48.216;-1.698;2023-05-23T07:52:07;6.85;;;6.22;;
16862;SDS011;52193;48.216;-1.698;2023-05-23T07:54:34;6.95;;;6.00;;
16862;SDS011;52193;48.216;-1.698;2023-05-23T07:57:01;5.78;;;5.38;;
16862;SDS011;52193;48.216;-1.698;2023-05-23T07:59:27;5.53;;;5.03;;
16862;SDS011;52193;48.216;-1.698;2023-05-23T08:01:55;6.60;;;6.00;;
16862;SDS011;52193;48.216;-1.698;2023-05-23T08:04:23;6.30;;;5.80;;
16862;SDS011;52193;48.216;-1.698;2023-05-23T08:06:50;7.28;;;6.57;;
16862;SDS011;52193;48.216;-1.698;2023-05-23T08:09:17;6.93;;;6.30;;
16862;SDS011;52193;48.216;-1.698;2023-05-23T08:11:45;6.75;;;6.25;;
16862;SDS011;52193;48.216;-1.698;2023-05-23T08:14:11;6.57;;;6.07;;
16862;SDS011;52193;48.216;-1.698;2023-05-23T08:16:38;7.50;;;6.82;;
16862;SDS011;52193;48.216;-1.698;2023-05-23T08:19:05;8.00;;;7.30;;
16862;SDS011;52193;48.216;-1.698;2023-05-23T08:21:34;7.18;;;6.60;;
16862;SDS011;52193;48.216;-1.698;2023-05-23T08:24:01;6.55;;;6.03;;
16862;SDS011;52193;48.216;-1.698;2023-05-23T08:26:28;6.97;;;6.38;;
16862;SDS011;52193;48.216;-1.698;2023-05-23T08:28:59;8.43;;;7.72;;
16862;SDS011;52193;48.216;-1.698;2023-05-23T08:31:26;7.70;;;6.90;;
16862;SDS011;52193;48.216;-1.698;2023-05-23T08:33:53;7.38;;;6.88;;
16862;SDS011;52193;48.216;-1.698;2023-05-23T08:36:20;7.60;;;7.00;;
16862;SDS011;52193;48.216;-1.698;2023-05-23T08:38:49;7.68;;;6.97;;
16862;SDS011;52193;48.216;-1.698;2023-05-23T08:41:17;7.55;;;6.95;;
16862;SDS011;52193;48.216;-1.698;2023-05-23T08:43:45;7.88;;;7.18;;
16862;SDS011;52193;48.216;-1.698;2023-05-23T08:46:12;7.97;;;7.38;;
16862;SDS011;52193;48.216;-1.698;2023-05-23T08:48:40;8.18;;;7.43;;
16862;SDS011;52193;48.216;-1.698;2023-05-23T08:51:08;7.85;;;7.22;;
16862;SDS011;52193;48.216;-1.698;2023-05-23T08:53:37;7.45;;;6.88;;
16862;SDS011;52193;48.216;-1.698;2023-05-23T08:56:06;6.95;;;6.45;;
16862;SDS011;52193;48.216;-1.698;2023-05-23T08:58:35;7.53;;;6.93;;
16862;SDS011;52193;48.216;-1.698;2023-05-23T09:01:02;7.05;;;6.45;;
16862;SDS011;52193;48.216;-1.698;2023-05-23T09:03:30;7.50;;;6.78;;
16862;SDS011;52193;48.216;-1.698;2023-05-23T09:05:57;7.85;;;7.07;;
16862;SDS011;52193;48.216;-1.698;2023-05-23T09:08:24;7.72;;;7.03;;
16862;SDS011;52193;48.216;-1.698;2023-05-23T09:10:52;6.43;;;5.97;;
16862;SDS011;52193;48.216;-1.698;2023-05-23T09:13:21;8.20;;;7.45;;
16862;SDS011;52193;48.216;-1.698;2023-05-23T09:15:54;7.80;;;7.00;;
16862;SDS011;52193;48.216;-1.698;2023-05-23T09:18:24;8.27;;;7.15;;
16862;SDS011;52193;48.216;-1.698;2023-05-23T09:20:52;7.22;;;6.55;;
16862;SDS011;52193;48.216;-1.698;2023-05-23T09:23:19;7.57;;;6.88;;
16862;SDS011;52193;48.216;-1.698;2023-05-23T09:25:46;7.68;;;6.80;;
16862;SDS011;52193;48.216;-1.698;2023-05-23T09:28:13;7.18;;;6.63;;
16862;SDS011;52193;48.216;-1.698;2023-05-23T09:30:41;7.95;;;6.82;;
16862;SDS011;52193;48.216;-1.698;2023-05-23T09:33:08;6.78;;;6.18;;
16862;SDS011;52193;48.216;-1.698;2023-05-23T09:35:36;9.80;;;7.93;;
16862;SDS011;52193;48.216;-1.698;2023-05-23T09:38:10;8.38;;;7.00;;
16862;SDS011;52193;48.216;-1.698;2023-05-23T09:40:37;7.75;;;7.05;;
16862;SDS011;52193;48.216;-1.698;2023-05-23T09:43:10;7.15;;;6.55;;
16862;SDS011;52193;48.216;-1.698;2023-05-23T09:45:37;8.10;;;7.13;;
16862;SDS011;52193;48.216;-1.698;2023-05-23T09:48:06;6.88;;;6.35;;
16862;SDS011;52193;48.216;-1.698;2023-05-23T09:50:38;8.25;;;7.30;;
16862;SDS011;52193;48.216;-1.698;2023-05-23T09:53:05;7.72;;;7.03;;
16862;SDS011;52193;48.216;-1.698;2023-05-23T09:55:32;7.05;;;6.45;;
16862;SDS011;52193;48.216;-1.698;2023-05-23T09:58:00;7.88;;;7.18;;
16862;SDS011;52193;48.216;-1.698;2023-05-23T10:00:29;7.03;;;6.30;;
16862;SDS011;52193;48.216;-1.698;2023-05-23T10:03:10;7.13;;;6.40;;
16862;SDS011;52193;48.216;-1.698;2023-05-23T10:05:39;7.65;;;7.05;;
16862;SDS011;52193;48.216;-1.698;2023-05-23T10:08:10;7.25;;;6.55;;
16862;SDS011;52193;48.216;-1.698;2023-05-23T10:13:43;7.60;;;6.60;;
16862;SDS011;52193;48.216;-1.698;2023-05-23T10:16:11;7.20;;;6.50;;
16862;SDS011;52193;48.216;-1.698;2023-05-23T10:18:47;6.22;;;5.63;;
16862;SDS011;52193;48.216;-1.698;2023-05-23T10:21:22;6.88;;;6.28;;
16862;SDS011;52193;48.216;-1.698;2023-05-23T10:23:56;7.20;;;6.50;;
16862;SDS011;52193;48.216;-1.698;2023-05-23T10:26:24;6.75;;;6.15;;
16862;SDS011;52193;48.216;-1.698;2023-05-23T10:28:52;6.13;;;5.53;;
16862;SDS011;52193;48.216;-1.698;2023-05-23T10:31:20;5.82;;;5.32;;
16862;SDS011;52193;48.216;-1.698;2023-05-23T10:36:39;6.50;;;5.78;;
16862;SDS011;52193;48.216;-1.698;2023-05-23T10:39:14;6.80;;;6.10;;
16862;SDS011;52193;48.216;-1.698;2023-05-23T10:41:49;6.80;;;6.13;;
16862;SDS011;52193;48.216;-1.698;2023-05-23T10:44:22;5.93;;;5.28;;
16862;SDS011;52193;48.216;-1.698;2023-05-23T10:46:53;6.22;;;5.70;;
16862;SDS011;52193;48.216;-1.698;2023-05-23T10:49:27;8.00;;;5.90;;
16862;SDS011;52193;48.216;-1.698;2023-05-23T10:52:03;6.90;;;6.25;;
16862;SDS011;52193;48.216;-1.698;2023-05-23T10:54:33;7.10;;;6.50;;
16862;SDS011;52193;48.216;-1.698;2023-05-23T10:57:03;6.05;;;5.55;;
16862;SDS011;52193;48.216;-1.698;2023-05-23T10:59:31;5.53;;;5.13;;
16862;SDS011;52193;48.216;-1.698;2023-05-23T11:01:58;5.65;;;5.07;;
16862;SDS011;52193;48.216;-1.698;2023-05-23T11:04:28;6.30;;;5.78;;
16862;SDS011;52193;48.216;-1.698;2023-05-23T11:06:55;5.32;;;4.93;;
16862;SDS011;52193;48.216;-1.698;2023-05-23T11:09:22;5.75;;;5.20;;
16862;SDS011;52193;48.216;-1.698;2023-05-23T11:11:52;5.57;;;5.18;;
16862;SDS011;52193;48.216;-1.698;2023-05-23T11:14:30;6.13;;;5.63;;
16862;SDS011;52193;48.216;-1.698;2023-05-23T11:16:58;5.38;;;4.97;;
16862;SDS011;52193;48.216;-1.698;2023-05-23T11:19:27;5.40;;;5.00;;
16862;SDS011;52193;48.216;-1.698;2023-05-23T11:21:56;6.15;;;5.55;;
16862;SDS011;52193;48.216;-1.698;2023-05-23T11:27:16;5.20;;;4.72;;
16862;SDS011;52193;48.216;-1.698;2023-05-23T11:29:54;6.60;;;6.00;;
16862;SDS011;52193;48.216;-1.698;2023-05-23T11:32:26;5.40;;;4.93;;
16862;SDS011;52193;48.216;-1.698;2023-05-23T11:34:57;7.03;;;5.70;;
16862;SDS011;52193;48.216;-1.698;2023-05-23T11:37:25;6.30;;;5.07;;
16862;SDS011;52193;48.216;-1.698;2023-05-23T11:39:53;6.40;;;5.82;;
16862;SDS011;52193;48.216;-1.698;2023-05-23T11:42:20;5.30;;;4.90;;
16862;SDS011;52193;48.216;-1.698;2023-05-23T11:44:48;5.07;;;4.68;;
16862;SDS011;52193;48.216;-1.698;2023-05-23T11:47:15;5.13;;;4.72;;
16862;SDS011;52193;48.216;-1.698;2023-05-23T11:49:43;6.15;;;5.07;;
16862;SDS011;52193;48.216;-1.698;2023-05-23T11:52:12;5.97;;;5.47;;
16862;SDS011;52193;48.216;-1.698;2023-05-23T11:54:40;5.53;;;5.03;;
16862;SDS011;52193;48.216;-1.698;2023-05-23T11:57:07;5.03;;;4.50;;
16862;SDS011;52193;48.216;-1.698;2023-05-23T11:59:34;5.72;;;4.88;;
16862;SDS011;52193;48.216;-1.698;2023-05-23T12:02:02;6.07;;;5.55;;
16862;SDS011;52193;48.216;-1.698;2023-05-23T12:04:30;4.72;;;4.32;;
16862;SDS011;52193;48.216;-1.698;2023-05-23T12:06:59;6.03;;;5.43;;
16862;SDS011;52193;48.216;-1.698;2023-05-23T12:09:33;4.97;;;4.57;;
16862;SDS011;52193;48.216;-1.698;2023-05-23T12:12:07;5.93;;;5.13;;
16862;SDS011;52193;48.216;-1.698;2023-05-23T12:14:34;4.18;;;3.88;;
16862;SDS011;52193;48.216;-1.698;2023-05-23T12:17:08;5.32;;;4.80;;
16862;SDS011;52193;48.216;-1.698;2023-05-23T12:19:36;5.85;;;5.35;;
16862;SDS011;52193;48.216;-1.698;2023-05-23T12:22:04;5.40;;;4.88;;
16862;SDS011;52193;48.216;-1.698;2023-05-23T12:24:33;4.65;;;4.25;;
16862;SDS011;52193;48.216;-1.698;2023-05-23T12:27:01;5.63;;;4.00;;
16862;SDS011;52193;48.216;-1.698;2023-05-23T12:29:29;4.85;;;4.35;;
16862;SDS011;52193;48.216;-1.698;2023-05-23T12:31:58;4.53;;;4.13;;
16862;SDS011;52193;48.216;-1.698;2023-05-23T12:34:25;4.20;;;3.80;;
16862;SDS011;52193;48.216;-1.698;2023-05-23T12:36:53;4.88;;;4.18;;
16862;SDS011;52193;48.216;-1.698;2023-05-23T12:39:23;4.57;;;4.15;;
16862;SDS011;52193;48.216;-1.698;2023-05-23T12:41:52;3.67;;;3.35;;
16862;SDS011;52193;48.216;-1.698;2023-05-23T12:44:20;3.50;;;3.20;;
16862;SDS011;52193;48.216;-1.698;2023-05-23T12:46:47;4.15;;;3.75;;
16862;SDS011;52193;48.216;-1.698;2023-05-23T12:49:14;3.90;;;3.60;;
16862;SDS011;52193;48.216;-1.698;2023-05-23T12:51:41;6.22;;;3.60;;
16862;SDS011;52193;48.216;-1.698;2023-05-23T12:54:08;6.30;;;3.70;;
16862;SDS011;52193;48.216;-1.698;2023-05-23T12:56:34;5.32;;;4.00;;
16862;SDS011;52193;48.216;-1.698;2023-05-23T12:59:03;3.50;;;3.20;;
16862;SDS011;52193;48.216;-1.698;2023-05-23T13:01:30;4.50;;;3.35;;
16862;SDS011;52193;48.216;-1.698;2023-05-23T13:03:58;4.45;;;3.38;;
16862;SDS011;52193;48.216;-1.698;2023-05-23T13:06:25;3.30;;;3.00;;
16862;SDS011;52193;48.216;-1.698;2023-05-23T13:08:52;3.25;;;2.75;;
16862;SDS011;52193;48.216;-1.698;2023-05-23T13:11:19;4.00;;;3.60;;
16862;SDS011;52193;48.216;-1.698;2023-05-23T13:13:46;4.07;;;3.30;;
16862;SDS011;52193;48.216;-1.698;2023-05-23T13:16:15;3.53;;;2.97;;
16862;SDS011;52193;48.216;-1.698;2023-05-23T13:18:42;3.10;;;2.72;;
16862;SDS011;52193;48.216;-1.698;2023-05-23T13:21:09;3.10;;;2.80;;
16862;SDS011;52193;48.216;-1.698;2023-05-23T13:23:36;3.47;;;2.65;;
16862;SDS011;52193;48.216;-1.698;2023-05-23T13:26:03;3.00;;;2.70;;
16862;SDS011;52193;48.216;-1.698;2023-05-23T13:28:30;4.57;;;2.80;;
16862;SDS011;52193;48.216;-1.698;2023-05-23T13:30:57;4.15;;;2.70;;
16862;SDS011;52193;48.216;-1.698;2023-05-23T13:33:25;3.25;;;2.70;;
16862;SDS011;52193;48.216;-1.698;2023-05-23T13:35:52;4.43;;;2.97;;
16862;SDS011;52193;48.216;-1.698;2023-05-23T13:38:19;2.67;;;2.47;;
16862;SDS011;52193;48.216;-1.698;2023-05-23T13:40:46;4.82;;;2.60;;
16862;SDS011;52193;48.216;-1.698;2023-05-23T13:43:15;2.50;;;2.30;;
16862;SDS011;52193;48.216;-1.698;2023-05-23T13:45:42;2.80;;;2.55;;
16862;SDS011;52193;48.216;-1.698;2023-05-23T13:48:09;3.78;;;2.58;;
16862;SDS011;52193;48.216;-1.698;2023-05-23T13:50:37;5.47;;;2.38;;
16862;SDS011;52193;48.216;-1.698;2023-05-23T13:53:04;2.55;;;2.35;;
16862;SDS011;52193;48.216;-1.698;2023-05-23T13:55:38;2.72;;;2.53;;
16862;SDS011;52193;48.216;-1.698;2023-05-23T13:58:05;2.40;;;2.20;;
16862;SDS011;52193;48.216;-1.698;2023-05-23T14:00:32;2.22;;;2.03;;
16862;SDS011;52193;48.216;-1.698;2023-05-23T14:02:59;3.58;;;2.35;;
16862;SDS011;52193;48.216;-1.698;2023-05-23T14:05:26;5.13;;;2.90;;
16862;SDS011;52193;48.216;-1.698;2023-05-23T14:07:54;2.90;;;2.20;;
16862;SDS011;52193;48.216;-1.698;2023-05-23T14:10:21;3.30;;;2.20;;
16862;SDS011;52193;48.216;-1.698;2023-05-23T14:12:48;2.78;;;2.20;;
16862;SDS011;52193;48.216;-1.698;2023-05-23T14:15:15;3.33;;;2.03;;
16862;SDS011;52193;48.216;-1.698;2023-05-23T14:17:42;2.13;;;1.90;;
16862;SDS011;52193;48.216;-1.698;2023-05-23T14:20:09;2.35;;;1.98;;
16862;SDS011;52193;48.216;-1.698;2023-05-23T14:22:37;3.03;;;2.38;;
16862;SDS011;52193;48.216;-1.698;2023-05-23T14:25:05;2.20;;;2.00;;
16862;SDS011;52193;48.216;-1.698;2023-05-23T14:27:33;2.42;;;2.22;;
16862;SDS011;52193;48.216;-1.698;2023-05-23T14:30:00;2.45;;;2.20;;
16862;SDS011;52193;48.216;-1.698;2023-05-23T14:32:27;2.67;;;2.17;;
16862;SDS011;52193;48.216;-1.698;2023-05-23T14:34:54;4.70;;;2.35;;
16862;SDS011;52193;48.216;-1.698;2023-05-23T14:37:21;2.88;;;2.10;;
16862;SDS011;52193;48.216;-1.698;2023-05-23T14:39:47;3.55;;;2.38;;
16862;SDS011;52193;48.216;-1.698;2023-05-23T14:42:16;2.72;;;2.20;;
16862;SDS011;52193;48.216;-1.698;2023-05-23T14:44:43;3.30;;;2.30;;
16862;SDS011;52193;48.216;-1.698;2023-05-23T14:47:10;2.83;;;2.30;;